createdAt,value
2024-02-14T00:00:21.905Z,96457.53
2024-02-14T00:02:51.588Z,96462.75
2024-02-14T00:05:19.103Z,96414.22
2024-02-14T00:07:46.008Z,96398.22
2024-02-14T00:10:12.749Z,96441.41
2024-02-14T00:12:39.545Z,96465.72
2024-02-14T00:15:08.766Z,96465.38
2024-02-14T00:17:36.428Z,96466.06
2024-02-14T00:20:04.596Z,96473.84
2024-02-14T00:22:33.809Z,96466.88
2024-02-14T00:25:01.122Z,96472.84
2024-02-14T00:27:28.290Z,96471.03
2024-02-14T00:29:55.992Z,96471.47
2024-02-14T00:32:23.504Z,96411.56
2024-02-14T00:34:51.497Z,96450.75
2024-02-14T00:37:18.461Z,96463.28
2024-02-14T00:39:45.175Z,96464.13
2024-02-14T00:42:12.158Z,96470.22
2024-02-14T00:44:39.019Z,96468.34
2024-02-14T00:47:05.936Z,96472.03
2024-02-14T00:49:36.177Z,96483.41
2024-02-14T00:52:03.405Z,96391.81
2024-02-14T00:54:30.081Z,96482.16
2024-02-14T00:56:56.849Z,96475.53
2024-02-14T00:59:23.734Z,96488.44
2024-02-14T01:01:50.469Z,96491.63
2024-02-14T01:04:18.386Z,96492.84
2024-02-14T01:06:45.673Z,96491.31
2024-02-14T01:09:12.444Z,96483.81
2024-02-14T01:11:39.760Z,96493.00
2024-02-14T01:14:06.877Z,96499.38
2024-02-14T01:16:33.563Z,96499.28
2024-02-14T01:19:00.584Z,96494.16
2024-02-14T01:21:27.577Z,96492.13
2024-02-14T01:23:54.349Z,96438.63
2024-02-14T01:26:22.089Z,96491.16
2024-02-14T01:28:49.603Z,96499.16
2024-02-14T01:31:16.678Z,96496.78
2024-02-14T01:33:45.111Z,96445.22
2024-02-14T01:36:12.097Z,96502.66
2024-02-14T01:38:38.964Z,96489.34
2024-02-14T01:41:06.800Z,96457.47
2024-02-14T01:43:33.572Z,96502.22
2024-02-14T01:46:07.793Z,96505.59
2024-02-14T01:48:40.853Z,96411.63
2024-02-14T01:51:10.230Z,96503.72
2024-02-14T01:53:41.135Z,96504.88
2024-02-14T01:56:08.413Z,96453.44
2024-02-14T01:58:35.801Z,96516.66
2024-02-14T02:01:04.065Z,96389.41
2024-02-14T02:03:36.841Z,96472.13
2024-02-14T02:06:04.751Z,96508.06
2024-02-14T02:08:31.757Z,96445.16
2024-02-14T02:10:58.575Z,96495.97
2024-02-14T02:13:26.952Z,96508.50
2024-02-14T02:15:54.648Z,96505.84
2024-02-14T02:18:21.550Z,96423.09
2024-02-14T02:20:48.745Z,96509.94
2024-02-14T02:23:18.425Z,96459.34
2024-02-14T02:25:45.375Z,96526.34
2024-02-14T02:28:12.352Z,96524.38
2024-02-14T02:30:39.437Z,96525.78
2024-02-14T02:33:07.326Z,96528.31
2024-02-14T02:35:35.568Z,96521.94
2024-02-14T02:38:02.516Z,96526.25
2024-02-14T02:40:29.337Z,96526.84
2024-02-14T02:42:56.063Z,96534.06
2024-02-14T02:45:22.946Z,96542.75
2024-02-14T02:47:52.915Z,96542.22
2024-02-14T02:50:21.172Z,96489.19
2024-02-14T02:52:48.512Z,96539.34
2024-02-14T02:55:18.605Z,96544.00
2024-02-14T02:57:46.739Z,96544.88
2024-02-14T03:00:14.698Z,96557.72
2024-02-14T03:02:46.331Z,96559.66
2024-02-14T03:05:19.829Z,96561.03
2024-02-14T03:07:49.009Z,96557.97
2024-02-14T03:10:19.084Z,96566.56
2024-02-14T03:12:49.781Z,96562.44
2024-02-14T03:15:17.483Z,96561.72
2024-02-14T03:17:44.366Z,96565.72
2024-02-14T03:20:16.754Z,96545.53
2024-02-14T03:22:49.079Z,96497.56
2024-02-14T03:25:20.593Z,96573.19
2024-02-14T03:27:50.704Z,96575.13
2024-02-14T03:30:18.957Z,96574.28
2024-02-14T03:32:46.542Z,96577.66
2024-02-14T03:35:17.391Z,96577.00
2024-02-14T03:37:48.908Z,96525.44
2024-02-14T03:40:16.198Z,96499.56
2024-02-14T03:42:43.115Z,96594.91
2024-02-14T03:45:10.622Z,96587.19
2024-02-14T03:47:46.545Z,96597.97
2024-02-14T03:50:13.530Z,96571.59
2024-02-14T03:52:40.286Z,96607.41
2024-02-14T03:55:07.465Z,96602.06
2024-02-14T03:57:36.630Z,96607.41
2024-02-14T04:00:04.339Z,96606.75
2024-02-14T04:02:32.962Z,96605.28
2024-02-14T04:05:00.051Z,96590.47
2024-02-14T04:07:27.281Z,96594.38
2024-02-14T04:09:53.977Z,96618.44
2024-02-14T04:12:20.774Z,96616.97
2024-02-14T04:14:47.497Z,96616.06
2024-02-14T04:17:14.956Z,96580.75
2024-02-14T04:19:41.755Z,96619.00
2024-02-14T04:22:09.429Z,96615.88
2024-02-14T04:24:36.651Z,96624.53
2024-02-14T04:27:05.724Z,96631.69
2024-02-14T04:29:34.916Z,96636.47
2024-02-14T04:32:03.555Z,96637.88
2024-02-14T04:34:31.414Z,96636.91
2024-02-14T04:36:58.956Z,96652.31
2024-02-14T04:39:25.878Z,96570.75
2024-02-14T04:41:57.792Z,96635.25
2024-02-14T04:44:32.750Z,96650.97
2024-02-14T04:47:00.230Z,96648.69
2024-02-14T04:49:28.184Z,96657.34
2024-02-14T04:51:56.141Z,96651.31
2024-02-14T04:54:22.952Z,96665.78
2024-02-14T04:56:52.488Z,96666.59
2024-02-14T04:59:22.208Z,96658.81
2024-02-14T05:01:49.097Z,96663.69
2024-02-14T05:04:17.941Z,96668.03
2024-02-14T05:06:44.996Z,96629.22
2024-02-14T05:09:12.027Z,96681.09
2024-02-14T05:11:39.019Z,96670.72
2024-02-14T05:14:05.849Z,96689.34
2024-02-14T05:16:32.556Z,96677.97
2024-02-14T05:18:59.600Z,96686.94
2024-02-14T05:21:26.432Z,96693.09
2024-02-14T05:23:53.242Z,96685.50
2024-02-14T05:26:20.134Z,96691.47
2024-02-14T05:28:47.578Z,96697.72
2024-02-14T05:31:14.307Z,96693.19
2024-02-14T05:33:41.530Z,96712.97
2024-02-14T05:36:08.635Z,96704.13
2024-02-14T05:38:35.642Z,96801.91
2024-02-14T05:41:02.570Z,96701.28
2024-02-14T05:43:29.289Z,96712.78
2024-02-14T05:45:56.666Z,96715.44
2024-02-14T05:48:23.800Z,96639.53
2024-02-14T05:50:50.892Z,96717.75
2024-02-14T05:53:17.711Z,96638.06
2024-02-14T05:55:44.745Z,96727.94
2024-02-14T05:58:11.962Z,96737.59
2024-02-14T06:00:39.831Z,96735.25
2024-02-14T06:03:08.101Z,96733.97
2024-02-14T06:05:36.497Z,96760.88
2024-02-14T06:08:04.361Z,96674.75
2024-02-14T06:10:31.273Z,96704.63
2024-02-14T06:12:58.085Z,96758.16
2024-02-14T06:15:24.919Z,96757.41
2024-02-14T06:17:51.995Z,96713.25
2024-02-14T06:20:19.165Z,96751.28
2024-02-14T06:22:53.238Z,96755.22
2024-02-14T06:25:24.271Z,96752.13
2024-02-14T06:27:51.077Z,96680.19
2024-02-14T06:30:18.749Z,96761.50
2024-02-14T06:32:46.278Z,96705.53
2024-02-14T06:35:16.491Z,96690.09
2024-02-14T06:37:48.906Z,96762.91
2024-02-14T06:40:23.575Z,96780.47
2024-02-14T06:42:53.160Z,96727.03
2024-02-14T06:45:19.999Z,96752.66
2024-02-14T06:47:46.863Z,96601.25
2024-02-14T06:50:13.603Z,96788.75
2024-02-14T06:52:40.380Z,96797.38
2024-02-14T06:55:07.456Z,96795.03
2024-02-14T06:57:34.248Z,96734.38
2024-02-14T07:00:01.185Z,96798.25
2024-02-14T07:02:29.441Z,96786.22
2024-02-14T07:04:56.340Z,96733.31
2024-02-14T07:07:23.392Z,96768.47
2024-02-14T07:09:50.217Z,96762.03
2024-02-14T07:12:17.036Z,96817.69
2024-02-14T07:14:43.878Z,96758.75
2024-02-14T07:17:10.654Z,96802.41
2024-02-14T07:19:37.762Z,96792.66
2024-02-14T07:22:05.048Z,96834.81
2024-02-14T07:24:31.821Z,96847.31
2024-02-14T07:26:59.041Z,96833.09
2024-02-14T07:29:26.825Z,96795.41
2024-02-14T07:31:53.731Z,96842.66
2024-02-14T07:34:21.114Z,96806.28
2024-02-14T07:36:47.969Z,96819.34
2024-02-14T07:39:14.989Z,96748.63
2024-02-14T07:41:41.897Z,96854.22
2024-02-14T07:44:08.871Z,96863.31
2024-02-14T07:46:35.630Z,96779.34
2024-02-14T07:49:02.529Z,96871.16
2024-02-14T07:51:30.516Z,96867.66
2024-02-14T07:53:57.365Z,96829.16
2024-02-14T07:56:24.113Z,96742.38
2024-02-14T07:58:51.318Z,96864.06
2024-02-14T08:01:18.161Z,96788.31
2024-02-14T08:03:47.230Z,96864.34
2024-02-14T08:06:14.880Z,96810.97
2024-02-14T08:08:41.993Z,96870.81
2024-02-14T08:11:08.765Z,96874.47
2024-02-14T08:13:35.823Z,96882.84
2024-02-14T08:16:02.635Z,96805.69
2024-02-14T08:18:29.679Z,96867.91
2024-02-14T08:20:56.651Z,96847.22
2024-02-14T08:23:23.712Z,96848.97
2024-02-14T08:25:50.498Z,96821.25
2024-02-14T08:28:19.392Z,96801.34
2024-02-14T08:30:46.237Z,96895.44
2024-02-14T08:33:13.226Z,96849.28
2024-02-14T08:35:43.568Z,96841.06
2024-02-14T08:38:11.380Z,96772.94
2024-02-14T08:40:38.296Z,96874.00
2024-02-14T08:43:06.118Z,96747.28
2024-02-14T08:45:33.077Z,96902.81
2024-02-14T08:48:00.082Z,96836.56
2024-02-14T08:50:26.919Z,96870.53
2024-02-14T08:52:53.658Z,96907.03
2024-02-14T08:55:20.521Z,96883.91
2024-02-14T08:57:49.522Z,96913.63
2024-02-14T09:00:21.186Z,96853.56
2024-02-14T09:02:48.835Z,96762.94
2024-02-14T09:05:15.868Z,96909.06
2024-02-14T09:07:43.161Z,96916.97
2024-02-14T09:10:11.734Z,96853.97
2024-02-14T09:12:38.765Z,96890.59
2024-02-14T09:15:06.664Z,96849.00
2024-02-14T09:17:33.890Z,96910.97
2024-02-14T09:20:01.388Z,96917.63
2024-02-14T09:22:28.224Z,96916.03
2024-02-14T09:24:54.975Z,96900.53
2024-02-14T09:27:21.886Z,96960.28
2024-02-14T09:29:48.685Z,96825.06
2024-02-14T09:32:15.508Z,96920.13
2024-02-14T09:34:42.462Z,96906.31
2024-02-14T09:37:10.591Z,96937.28
2024-02-14T09:39:38.121Z,96813.22
2024-02-14T09:42:10.567Z,96895.00
2024-02-14T09:44:39.436Z,96934.41
2024-02-14T09:47:07.298Z,96920.59
2024-02-14T09:49:38.034Z,96914.56
2024-02-14T09:52:06.414Z,96896.22
2024-02-14T09:54:36.519Z,96547.53
2024-02-14T09:57:03.846Z,96914.19
2024-02-14T09:59:32.225Z,96909.66
2024-02-14T10:01:59.315Z,96892.81
2024-02-14T10:04:27.041Z,96907.66
2024-02-14T10:06:54.076Z,96736.03
2024-02-14T10:09:24.581Z,96919.63
2024-02-14T10:11:51.375Z,96908.34
2024-02-14T10:14:18.288Z,96908.00
2024-02-14T10:16:46.753Z,96905.81
2024-02-14T10:19:20.121Z,96484.94
2024-02-14T10:21:57.632Z,96651.13
2024-02-14T10:24:32.053Z,96836.50
2024-02-14T10:27:02.039Z,96909.84
2024-02-14T10:29:29.150Z,96844.22
2024-02-14T10:31:55.895Z,96852.97
2024-02-14T10:34:29.013Z,96886.91
2024-02-14T10:36:58.910Z,96721.00
2024-02-14T10:39:26.974Z,96774.88
2024-02-14T10:41:54.407Z,96745.78
2024-02-14T10:44:21.540Z,96884.50
2024-02-14T10:46:53.789Z,96878.94
2024-02-14T10:49:22.450Z,96632.03
2024-02-14T10:51:51.798Z,96866.25
2024-02-14T10:54:21.186Z,96878.22
2024-02-14T10:56:53.842Z,96475.78
2024-02-14T10:59:25.401Z,96881.03
2024-02-14T11:01:52.781Z,96870.13
2024-02-14T11:04:20.249Z,96671.63
2024-02-14T11:06:54.876Z,96840.69
2024-02-14T11:09:21.836Z,96700.91
2024-02-14T11:11:49.062Z,96778.03
2024-02-14T11:14:24.613Z,96878.00
2024-02-14T11:16:53.762Z,96869.25
2024-02-14T11:19:21.533Z,96850.66
2024-02-14T11:21:50.211Z,96880.31
2024-02-14T11:24:17.785Z,96821.16
2024-02-14T11:26:50.342Z,96875.31
2024-02-14T11:29:21.301Z,96872.59
2024-02-14T11:31:51.227Z,96871.78
2024-02-14T11:34:18.489Z,96870.28
2024-02-14T11:36:46.420Z,96867.09
2024-02-14T11:39:13.346Z,96871.88
2024-02-14T11:41:40.222Z,96785.88
2024-02-14T11:44:07.102Z,96873.41
2024-02-14T11:46:38.036Z,96880.56
2024-02-14T11:49:06.334Z,96864.63
2024-02-14T11:51:36.881Z,96844.78
2024-02-14T11:54:06.314Z,96838.41
2024-02-14T11:56:37.754Z,96835.63
2024-02-14T11:59:06.472Z,96775.13
2024-02-14T12:01:35.795Z,96812.91
2024-02-14T12:04:04.692Z,96921.19
2024-02-14T12:06:33.624Z,96825.28
2024-02-14T12:09:06.652Z,96881.31
2024-02-14T12:11:34.733Z,96890.09
2024-02-14T12:14:06.392Z,96823.94
2024-02-14T12:16:37.290Z,96816.91
2024-02-14T12:19:18.341Z,96814.53
2024-02-14T12:21:45.766Z,96892.56
2024-02-14T12:24:16.830Z,96827.22
2024-02-14T12:26:44.310Z,96794.22
2024-02-14T12:29:14.498Z,96881.97
2024-02-14T12:31:41.597Z,96889.97
2024-02-14T12:34:08.660Z,96845.66
2024-02-14T12:36:35.923Z,96883.31
2024-02-14T12:39:03.845Z,96883.28
2024-02-14T12:41:36.598Z,96873.22
2024-02-14T12:44:03.547Z,96901.84
2024-02-14T12:46:30.908Z,96720.44
2024-02-14T12:48:58.122Z,96869.47
2024-02-14T12:51:30.148Z,96811.75
2024-02-14T12:53:57.423Z,96889.16
2024-02-14T12:56:25.091Z,96912.41
2024-02-14T12:58:51.961Z,96883.38
2024-02-14T13:01:19.493Z,96862.19
2024-02-14T13:03:46.822Z,96741.31
2024-02-14T13:06:15.620Z,96834.09
2024-02-14T13:08:43.218Z,96900.63
2024-02-14T13:11:10.401Z,96898.03
2024-02-14T13:13:37.921Z,96856.25
2024-02-14T13:16:07.696Z,96900.94
2024-02-14T13:18:36.492Z,96897.44
2024-02-14T13:21:03.806Z,96849.22
2024-02-14T13:23:31.379Z,96902.81
2024-02-14T13:25:58.494Z,96843.97
2024-02-14T13:28:25.769Z,96899.47
2024-02-14T13:30:54.478Z,96516.94
2024-02-14T13:33:23.601Z,96948.03
2024-02-14T13:35:50.466Z,96824.16
2024-02-14T13:38:18.538Z,96886.75
2024-02-14T13:40:45.445Z,96798.75
2024-02-14T13:43:14.675Z,96905.81
2024-02-14T13:45:44.906Z,96103.97
2024-02-14T13:48:12.558Z,96796.16
2024-02-14T13:50:39.768Z,96776.69
2024-02-14T13:53:07.955Z,96889.25
2024-02-14T13:55:34.825Z,96866.09
2024-02-14T13:58:01.806Z,96779.59
2024-02-14T14:00:28.709Z,96933.19
2024-02-14T14:02:56.740Z,96886.19
2024-02-14T14:05:23.734Z,96935.50
2024-02-14T14:07:57.955Z,96821.03
2024-02-14T14:10:27.645Z,96878.25
2024-02-14T14:12:56.129Z,96858.31
2024-02-14T14:15:24.028Z,96921.97
2024-02-14T14:17:51.896Z,96928.69
2024-02-14T14:20:20.697Z,96938.75
2024-02-14T14:22:49.788Z,96912.63
2024-02-14T14:25:16.828Z,96819.19
2024-02-14T14:27:44.299Z,96891.03
2024-02-14T14:30:12.785Z,96917.84
2024-02-14T14:32:41.735Z,96811.91
2024-02-14T14:35:11.870Z,96764.88
2024-02-14T14:37:39.299Z,96945.91
2024-02-14T14:40:06.881Z,96886.84
2024-02-14T14:42:33.718Z,96735.53
2024-02-14T14:45:00.840Z,96895.91
2024-02-14T14:47:27.762Z,96919.75
2024-02-14T14:49:55.000Z,96887.50
2024-02-14T14:52:21.894Z,96751.94
2024-02-14T14:54:48.748Z,96795.13
2024-02-14T14:57:16.719Z,96956.44
2024-02-14T14:59:44.664Z,96967.34
2024-02-14T15:02:11.984Z,96921.22
2024-02-14T15:04:41.385Z,96584.69
2024-02-14T15:07:08.525Z,96943.94
2024-02-14T15:09:38.005Z,96974.47
2024-02-14T15:12:09.284Z,96912.56
2024-02-14T15:14:36.190Z,96966.34
2024-02-14T15:17:03.001Z,96971.50
2024-02-14T15:19:29.762Z,96964.91
2024-02-14T15:21:56.528Z,96976.69
2024-02-14T15:24:24.009Z,97026.16
2024-02-14T15:26:51.168Z,96923.44
2024-02-14T15:29:38.241Z,96910.94
2024-02-14T15:32:24.092Z,96980.16
2024-02-14T15:34:51.063Z,96982.50
2024-02-14T15:37:19.047Z,96978.34
2024-02-14T15:39:46.127Z,96983.78
2024-02-14T15:42:13.414Z,96987.13
2024-02-14T15:44:40.620Z,96899.56
2024-02-14T15:47:08.927Z,96986.69
2024-02-14T15:49:36.694Z,96998.88
2024-02-14T15:52:03.944Z,97011.31
2024-02-14T15:54:30.747Z,97013.75
2024-02-14T15:56:57.629Z,97018.13
2024-02-14T15:59:24.433Z,97005.63
2024-02-14T16:01:51.226Z,97027.84
2024-02-14T16:04:17.999Z,97034.28
2024-02-14T16:06:44.896Z,97042.88
2024-02-14T16:09:11.833Z,97020.28
2024-02-14T16:11:38.694Z,97028.22
2024-02-14T16:14:05.404Z,96982.03
2024-02-14T16:16:32.973Z,97051.31
2024-02-14T16:19:04.016Z,97056.97
2024-02-14T16:21:30.938Z,97058.69
2024-02-14T16:23:57.713Z,97031.06
2024-02-14T16:26:27.004Z,96981.00
2024-02-14T16:28:55.169Z,97013.59
2024-02-14T16:31:22.871Z,97059.44
2024-02-14T16:33:49.869Z,97080.97
2024-02-14T16:36:16.704Z,97093.22
2024-02-14T16:38:43.959Z,97091.06
2024-02-14T16:41:11.565Z,97097.19
2024-02-14T16:43:39.104Z,97094.13
2024-02-14T16:46:05.976Z,97098.00
2024-02-14T16:48:33.055Z,97082.06
2024-02-14T16:50:59.854Z,96999.56
2024-02-14T16:53:26.625Z,97028.75
2024-02-14T16:55:53.313Z,97111.59
2024-02-14T16:58:20.145Z,97193.91
2024-02-14T17:00:47.018Z,97040.25
2024-02-14T17:03:16.973Z,97127.47
2024-02-14T17:05:47.242Z,97049.50
2024-02-14T17:08:14.214Z,97128.94
2024-02-14T17:10:41.153Z,97034.59
2024-02-14T17:13:08.623Z,97123.56
2024-02-14T17:15:36.251Z,97140.28
2024-02-14T17:18:04.267Z,97044.41
2024-02-14T17:20:32.293Z,97094.41
2024-02-14T17:22:59.137Z,97148.78
2024-02-14T17:25:25.995Z,97086.09
2024-02-14T17:27:53.295Z,97148.47
2024-02-14T17:30:21.759Z,97160.50
2024-02-14T17:32:49.946Z,97131.72
2024-02-14T17:35:17.480Z,97120.50
2024-02-14T17:37:44.382Z,97151.53
2024-02-14T17:40:13.078Z,97151.91
2024-02-14T17:42:39.907Z,97156.50
2024-02-14T17:45:07.638Z,97149.78
2024-02-14T17:47:35.320Z,97026.66
2024-02-14T17:50:04.318Z,97120.47
2024-02-14T17:52:31.299Z,97177.69
2024-02-14T17:54:58.866Z,97140.97
2024-02-14T17:57:26.259Z,97146.28
2024-02-14T17:59:53.738Z,97151.97
2024-02-14T18:02:21.355Z,97124.47
2024-02-14T18:04:48.314Z,97111.75
2024-02-14T18:07:15.520Z,97156.69
2024-02-14T18:09:42.418Z,97122.56
2024-02-14T18:12:10.008Z,97147.22
2024-02-14T18:14:36.928Z,97155.41
2024-02-14T18:17:04.267Z,97152.94
2024-02-14T18:19:31.288Z,97167.63
2024-02-14T18:21:58.242Z,97166.00
2024-02-14T18:24:25.150Z,97149.72
2024-02-14T18:26:52.094Z,97143.84
2024-02-14T18:29:19.022Z,97126.22
2024-02-14T18:31:48.957Z,97147.16
2024-02-14T18:34:16.208Z,97151.66
2024-02-14T18:36:43.224Z,97096.41
2024-02-14T18:39:10.711Z,97245.84
2024-02-14T18:41:38.225Z,97175.22
2024-02-14T18:44:06.808Z,97166.94
2024-02-14T18:46:34.063Z,97193.00
2024-02-14T18:49:01.300Z,97189.66
2024-02-14T18:51:28.515Z,97095.16
2024-02-14T18:53:56.547Z,97168.59
2024-02-14T18:56:24.600Z,97186.66
2024-02-14T18:58:51.552Z,97198.31
2024-02-14T19:01:26.919Z,97204.88
2024-02-14T19:03:57.533Z,97102.44
2024-02-14T19:06:26.303Z,97173.28
2024-02-14T19:08:53.377Z,96927.03
2024-02-14T19:11:20.539Z,97184.50
2024-02-14T19:13:47.488Z,97130.59
2024-02-14T19:16:24.109Z,97201.59
2024-02-14T19:18:56.013Z,97200.00
2024-02-14T19:21:23.654Z,97198.38
2024-02-14T19:23:50.972Z,97140.97
2024-02-14T19:26:20.378Z,97187.63
2024-02-14T19:28:47.725Z,97139.78
2024-02-14T19:31:14.920Z,97195.31
2024-02-14T19:33:48.558Z,97201.59
2024-02-14T19:36:15.731Z,97132.19
2024-02-14T19:38:42.782Z,97166.63
2024-02-14T19:41:09.760Z,97162.13
2024-02-14T19:43:40.049Z,97197.34
2024-02-14T19:46:07.909Z,97204.38
2024-02-14T19:48:36.546Z,97182.97
2024-02-14T19:51:04.802Z,97185.81
2024-02-14T19:53:32.756Z,97154.44
2024-02-14T19:56:00.358Z,97122.22
2024-02-14T19:58:27.865Z,97192.78
2024-02-14T20:00:55.246Z,97177.34
2024-02-14T20:03:22.620Z,97214.91
2024-02-14T20:05:50.315Z,97142.53
2024-02-14T20:08:19.671Z,97171.03
2024-02-14T20:10:47.104Z,97161.84
2024-02-14T20:13:14.614Z,97153.31
2024-02-14T20:15:48.087Z,97166.38
2024-02-14T20:18:17.030Z,97172.47
2024-02-14T20:20:44.408Z,96976.00
2024-02-14T20:23:14.455Z,97152.94
2024-02-14T20:25:44.048Z,97105.13
2024-02-14T20:28:11.359Z,97175.47
2024-02-14T20:30:38.430Z,97150.56
2024-02-14T20:33:06.059Z,97141.59
2024-02-14T20:35:38.303Z,97156.63
2024-02-14T20:38:13.712Z,97161.00
2024-02-14T20:40:41.799Z,97159.75
2024-02-14T20:43:08.880Z,97145.41
2024-02-14T20:45:36.612Z,97153.66
2024-02-14T20:48:04.367Z,97145.00
2024-02-14T20:50:31.596Z,97151.19
2024-02-14T20:53:01.746Z,97156.06
2024-02-14T20:55:32.559Z,97161.19
2024-02-14T20:58:01.433Z,97151.16
2024-02-14T21:00:29.523Z,97144.75
2024-02-14T21:02:56.353Z,97142.50
2024-02-14T21:05:23.660Z,97064.56
2024-02-14T21:07:50.586Z,97123.47
2024-02-14T21:10:19.902Z,97134.47
2024-02-14T21:12:47.938Z,97123.25
2024-02-14T21:15:14.856Z,97138.47
2024-02-14T21:17:41.904Z,97140.00
2024-02-14T21:20:09.331Z,97108.78
2024-02-14T21:22:37.154Z,97132.09
2024-02-14T21:25:04.916Z,97143.88
2024-02-14T21:27:31.683Z,97151.97
2024-02-14T21:29:58.517Z,97096.88
2024-02-14T21:32:26.928Z,97150.84
2024-02-14T21:34:53.847Z,97107.66
2024-02-14T21:37:20.760Z,97143.81
2024-02-14T21:39:48.872Z,97074.13
2024-02-14T21:42:15.780Z,97097.97
2024-02-14T21:44:43.630Z,97149.47
2024-02-14T21:47:11.674Z,97151.59
2024-02-14T21:49:39.876Z,97093.16
2024-02-14T21:52:08.526Z,97146.06
2024-02-14T21:54:36.054Z,97144.94
2024-02-14T21:57:05.268Z,97152.16
2024-02-14T21:59:32.133Z,97165.72
2024-02-14T22:01:59.238Z,97173.56
2024-02-14T22:04:26.034Z,97160.53
2024-02-14T22:06:53.179Z,97168.53
2024-02-14T22:09:22.247Z,97158.00
2024-02-14T22:11:49.489Z,97158.13
2024-02-14T22:14:16.309Z,97119.00
2024-02-14T22:16:43.426Z,97182.59
2024-02-14T22:19:11.988Z,97174.06
2024-02-14T22:21:38.839Z,97160.78
2024-02-14T22:24:07.116Z,97115.97
2024-02-14T22:26:33.921Z,97174.63
2024-02-14T22:29:00.657Z,97180.66
2024-02-14T22:31:30.323Z,97119.50
2024-02-14T22:33:57.835Z,97180.63
2024-02-14T22:36:25.682Z,97175.47
2024-02-14T22:38:52.890Z,97161.56
2024-02-14T22:41:22.960Z,97139.06
2024-02-14T22:43:54.031Z,97120.00
2024-02-14T22:46:21.037Z,97145.69
2024-02-14T22:48:48.324Z,97150.31
2024-02-14T22:51:15.942Z,97192.16
2024-02-14T22:53:42.891Z,97172.94
2024-02-14T22:56:13.110Z,97173.94
2024-02-14T22:58:40.066Z,97177.59
2024-02-14T23:01:06.947Z,97133.53
2024-02-14T23:03:33.900Z,97179.81
2024-02-14T23:06:03.585Z,97121.00
2024-02-14T23:08:30.539Z,97102.69
2024-02-14T23:10:57.361Z,97172.78
2024-02-14T23:13:24.100Z,97169.44
2024-02-14T23:15:53.136Z,97193.03
2024-02-14T23:18:21.701Z,97171.78
2024-02-14T23:20:48.725Z,97175.66
2024-02-14T23:23:15.478Z,97100.94
2024-02-14T23:25:42.242Z,97156.41
2024-02-14T23:28:09.088Z,97175.47
2024-02-14T23:30:36.379Z,97179.00
2024-02-14T23:33:03.595Z,97180.28
2024-02-14T23:35:30.497Z,97184.53
2024-02-14T23:37:57.670Z,97124.25
2024-02-14T23:40:24.512Z,97171.38
2024-02-14T23:42:51.322Z,97126.28
2024-02-14T23:45:19.652Z,97135.22
2024-02-14T23:47:46.615Z,97180.53
2024-02-14T23:50:13.839Z,97181.00
2024-02-14T23:52:42.339Z,97272.28
2024-02-14T23:55:10.841Z,97129.06
2024-02-14T23:57:37.606Z,97183.22
